Terminal Aerodrome Forecast
Issued by NWS Bismarck, ND

Home | Current Version | Previous Version | Graphics & Text | Print | Product List | Glossary Off
Versions: 1 2 3 4 5 6 7 8 9 10 11 12 13 14 15 16 17 18 19

000
FTUS43 KBIS 171900 AAA
TAFBIS
TAF AMD
KBIS 171903Z 1719/1818 15008KT P6SM SCT014
      TEMPO 1720/1723 -SN BKN014
     FM172300 13007KT P6SM -SN OVC012=

USA.gov is the U.S. government's official web portal to all federal, state and local government web resources and services.